createdAt,value
2023-02-18T00:06:20.198Z,6.50
2023-02-18T00:16:26.313Z,6.71
2023-02-18T00:26:38.164Z,7.03
2023-02-18T00:37:13.557Z,7.04
2023-02-18T00:47:27.759Z,7.18
2023-02-18T00:57:43.044Z,7.21
2023-02-18T01:08:19.779Z,7.36
2023-02-18T01:18:32.760Z,7.47
2023-02-18T01:28:51.556Z,7.48
2023-02-18T01:39:15.959Z,7.62
2023-02-18T01:49:50.728Z,7.78
2023-02-18T02:00:15.282Z,7.71
2023-02-18T02:11:08.158Z,7.55
2023-02-18T02:22:04.814Z,7.41
2023-02-18T02:32:44.516Z,7.31
2023-02-18T02:42:52.491Z,7.09
2023-02-18T02:53:16.699Z,6.91
2023-02-18T03:03:23.952Z,6.77
2023-02-18T03:14:09.092Z,6.66
2023-02-18T03:25:07.065Z,6.40
2023-02-18T03:35:38.269Z,6.21
2023-02-18T03:46:33.522Z,6.09
2023-02-18T03:56:59.089Z,6.04
2023-02-18T04:07:51.230Z,5.96
2023-02-18T04:18:35.020Z,5.96
2023-02-18T04:28:47.477Z,5.93
2023-02-18T04:39:00.156Z,5.83
2023-02-18T04:49:36.048Z,5.71
2023-02-18T05:00:12.871Z,5.53
2023-02-18T05:10:46.541Z,5.52
2023-02-18T05:21:05.247Z,5.46
2023-02-18T05:31:12.659Z,5.23
2023-02-18T05:41:19.935Z,5.15
2023-02-18T05:52:34.474Z,5.15
2023-02-18T06:03:40.019Z,5.27
2023-02-18T06:14:13.753Z,5.30
2023-02-18T06:24:29.283Z,5.29
2023-02-18T06:35:15.105Z,5.64
2023-02-18T06:46:02.727Z,5.84
2023-02-18T06:57:09.998Z,6.12
2023-02-18T07:07:26.554Z,6.52
2023-02-18T07:18:25.165Z,6.72
2023-02-18T07:29:01.596Z,6.93
2023-02-18T07:39:29.286Z,7.18
2023-02-18T07:50:43.229Z,7.30
2023-02-18T08:01:07.731Z,7.30
2023-02-18T08:12:15.740Z,7.36
2023-02-18T08:23:31.638Z,7.46
2023-02-18T08:34:56.525Z,7.57
2023-02-18T08:45:59.967Z,7.75
2023-02-18T08:56:39.941Z,7.84
2023-02-18T09:07:35.491Z,7.97
2023-02-18T09:18:44.092Z,8.11
2023-02-18T09:29:55.282Z,8.09
2023-02-18T09:41:05.084Z,8.09
2023-02-18T09:52:09.660Z,8.13
2023-02-18T10:03:22.919Z,8.27
2023-02-18T10:14:24.538Z,8.40
2023-02-18T10:25:49.339Z,8.53
2023-02-18T10:37:02.495Z,8.97
2023-02-18T10:47:33.184Z,9.35
2023-02-18T10:58:29.334Z,9.59
2023-02-18T11:08:47.039Z,9.54
2023-02-18T11:19:05.537Z,9.45
2023-02-18T11:29:24.918Z,9.28
2023-02-18T11:40:05.614Z,9.09
2023-02-18T11:50:38.472Z,8.90
2023-02-18T12:01:56.693Z,8.75
2023-02-18T12:12:38.951Z,8.78
2023-02-18T12:23:30.903Z,8.85
2023-02-18T12:34:20.306Z,9.02
2023-02-18T12:44:45.648Z,9.25
2023-02-18T13:06:23.542Z,9.66
2023-02-18T13:17:37.335Z,9.50
2023-02-18T13:42:23.523Z,8.74
2023-02-18T13:54:09.442Z,8.56
2023-02-18T14:05:28.345Z,8.51
2023-02-18T14:16:44.732Z,8.24
2023-02-18T14:28:11.459Z,7.89
2023-02-18T14:39:31.844Z,7.64
2023-02-18T14:50:57.412Z,7.46
2023-02-18T15:02:17.252Z,7.37
2023-02-18T15:13:43.064Z,7.16
2023-02-18T15:24:51.085Z,6.99
2023-02-18T15:35:59.006Z,6.86
2023-02-18T15:47:14.491Z,6.71
2023-02-18T15:58:42.971Z,6.63
2023-02-18T16:09:50.620Z,6.60
2023-02-18T16:21:12.625Z,6.61
2023-02-18T16:32:21.367Z,6.44
2023-02-18T16:43:39.997Z,6.34
2023-02-18T16:54:52.313Z,6.39
2023-02-18T17:06:18.323Z,6.46
2023-02-18T17:17:44.159Z,6.56
2023-02-18T17:28:41.440Z,6.54
2023-02-18T17:39:58.786Z,6.62
2023-02-18T17:50:27.933Z,6.88
2023-02-18T18:01:26.472Z,7.01
2023-02-18T18:12:33.456Z,7.10
2023-02-18T18:23:34.733Z,7.14
2023-02-18T18:34:52.603Z,7.26
2023-02-18T18:46:19.181Z,7.29
2023-02-18T18:57:47.328Z,7.18
2023-02-18T19:09:10.911Z,7.07
2023-02-18T19:20:28.824Z,7.07
2023-02-18T19:31:25.183Z,7.18
2023-02-18T19:42:24.445Z,7.22
2023-02-18T19:53:48.743Z,7.18
2023-02-18T20:05:09.565Z,7.08
2023-02-18T20:16:31.599Z,7.05
2023-02-18T20:28:01.828Z,6.97
2023-02-18T20:39:16.665Z,6.95
2023-02-18T20:50:35.597Z,6.97
2023-02-18T21:01:59.329Z,7.08
2023-02-18T21:13:16.209Z,7.06
2023-02-18T21:24:34.074Z,7.14
2023-02-18T21:35:46.096Z,7.23
2023-02-18T21:47:13.397Z,7.36
2023-02-18T21:58:32.756Z,7.49
2023-02-18T22:09:50.805Z,7.45
2023-02-18T22:21:16.532Z,7.35
2023-02-18T22:32:41.403Z,7.13
2023-02-18T22:44:06.611Z,6.88
2023-02-18T22:55:24.348Z,6.69
2023-02-18T23:06:49.227Z,6.54
2023-02-18T23:18:07.410Z,6.42
2023-02-18T23:29:06.590Z,6.37
2023-02-18T23:40:22.700Z,6.32
2023-02-18T23:51:34.965Z,6.30
